Impacts TAF Board
For situational awareness. Not to be used for flight planning purposes.
IDs:

KJCT - Junction/Kimble Cnty, TX, US

Issued at 1122 UTC 23 Sep 2020
Updated at 1456 UTC 23 Sep 2020
Potential Impact None Slight Moderate High
Time1451Z 23/15Z 23/16Z 23/17Z 23/18Z 23/19Z 23/20Z 23/21Z 23/22Z 23/23Z 24/00Z 24/01Z 24/02Z 24/03Z>>
Type OBS PRVL PRVL PRVL PRVL PRVL PRVL PRVL PRVL PRVL PRVL PRVL PRVL PRVL
VIS 10 >6 >6 >6 >6 >6 >6 >6 >6 >6 >6 >6 >6 >6
CIG 13 15 15 -- -- -- -- -- -- -- -- -- -- --
Cover OVC OVC OVC SCT SCT SCT SCT SCT SCT SCT SKC SKC SKC SKC
FltCat MVFR MVFR MVFR VFR VFR VFR VFR VFR VFR VFR VFR VFR VFR VFR
WX -- -- -- -- -- -- -- -- -- -- -- -- -- --
WDir 360 10 10 20 20 20 20 20 20 20 40 40 40 40
WSpd 4 5 5 8 8 8 8 8 8 8 6 6 6 6
WGst -- -- -- -- -- -- -- -- -- -- -- -- -- --
R08/26
XWnd 4 5 5 8 8 8 8 8 8 8 5 5 5 5
HWnd -0 1 1 2 2 2 2 2 2 2 4 4 4 4
R17/35
XWnd -0 1 1 3 3 3 3 3 3 3 4 4 4 4
HWnd -4 -5 -5 -8 -8 -8 -8 -8 -8 -8 -5 -5 -5 -5
Raw TAF
KJCT 231122Z 2312/2412 01005KT P6SM OVC015
  FM231700 02008KT P6SM SCT025
  FM240000 04006KT P6SM SKC


Raw METAR
KJCT 231451Z AUTO 36004KT 10SM OVC013 21/18 A3004 RMK AO2 SLP140 T02060183 51014
KJCT 231351Z AUTO 33007KT 10SM OVC014 21/18 A3003 RMK AO2 SLP135 T02060178
KJCT 231251Z AUTO 34005KT 10SM OVC013 21/18 A3001 RMK AO2 SLP129 T02060183
KJCT 231151Z AUTO 02004KT 10SM OVC014 21/18 A3000 RMK AO2 SLP124 T02060183 10217 20200 53000
KJCT 231143Z AUTO 36004KT 10SM OVC014 21/18 A3000 RMK AO2 T02060183

METAR Board
Radar Display
Forecast Discussion
For situational awareness. Not to be used for flight planning purposes.